Time;durP1;ratioP1;P1;durP2;ratioP2;P2;SDS_P1;SDS_P2;PMS_P1;PMS_P2;Temp;Humidity;BMP_temperature;BMP_pressure;BME280_temperature;BME280_humidity;BME280_pressure;Samples;Min_cycle;Max_cycle;Signal;HPM_P1;HPM_P2
2023/10/21 00:00:27;;;;;;;;;;;;;;;11.39;51.50;98244.84;5015391;27;98259;-64
2023/10/21 00:02:54;;;;;;;;;;;;;;;11.38;51.57;98259.44;4982996;27;98380;-64
2023/10/21 00:05:21;;;;;;;;;;;;;;;11.39;51.54;98284.50;4983584;27;98393;-71
2023/10/21 00:07:49;;;;;;;;;;;;;;;11.38;51.28;98282.94;5013285;27;99056;-64
2023/10/21 00:10:15;;;;;;;;;;;;;;;11.38;51.37;98278.31;4996689;27;98672;-63
2023/10/21 00:12:43;;;;;;;;;;;;;;;11.37;51.47;98263.25;4985810;27;98172;-71
2023/10/21 00:15:09;;;;;;;;;;;;;;;11.38;51.33;98258.66;4995499;27;98043;-71
2023/10/21 00:17:36;;;;;;;;;;;;;;;11.39;51.28;98277.19;5002170;27;99095;-64
2023/10/21 00:20:09;;;;;;;;;;;;;;;11.38;51.29;98277.53;4987974;27;98263;-63
2023/10/21 00:22:36;;;;;;;;;;;;;;;11.38;51.39;98289.13;4987084;27;97983;-70
2023/10/21 00:25:04;;;;;;;;;;;;;;;11.38;51.39;98291.03;5004486;27;99656;-70
2023/10/21 00:27:30;;;;;;;;;;;;;;;11.43;51.25;98290.84;4969574;27;98252;-70
2023/10/21 00:29:57;;;;;;;;;;;;;;;11.50;51.40;98281.13;4985198;27;97996;-63
2023/10/21 00:32:23;;;;;;;;;;;;;;;11.57;51.41;98287.91;4971552;27;100981;-71
2023/10/21 00:34:50;;;;;;;;;;;;;;;11.62;51.31;98303.91;4987008;27;99855;-70
2023/10/21 00:37:17;;;;;;;;;;;;;;;11.67;51.54;98301.03;4966834;27;98737;-63
2023/10/21 00:39:44;;;;;;;;;;;;;;;11.72;51.44;98298.16;5001784;27;98389;-70
2023/10/21 00:42:11;;;;;;;;;;;;;;;11.74;51.49;98306.69;4982683;27;98127;-71
2023/10/21 00:44:37;;;;;;;;;;;;;;;11.76;51.50;98301.78;5015661;27;99012;-71
2023/10/21 00:47:04;;;;;;;;;;;;;;;11.78;51.60;98289.53;4997868;27;98715;-64
2023/10/21 00:49:31;;;;;;;;;;;;;;;11.78;51.38;98281.44;4982888;27;99642;-64
2023/10/21 00:51:58;;;;;;;;;;;;;;;11.80;51.08;98286.50;4968569;27;98422;-71
2023/10/21 00:54:28;;;;;;;;;;;;;;;11.83;51.61;98293.16;4998929;27;98144;-71
2023/10/21 00:56:54;;;;;;;;;;;;;;;11.83;51.42;98298.53;4968107;27;98429;-71
2023/10/21 00:59:20;;;;;;;;;;;;;;;11.83;51.43;98296.69;4959039;27;99727;-71
2023/10/21 01:01:47;;;;;;;;;;;;;;;11.83;51.45;98301.25;4979740;27;106425;-64
2023/10/21 01:04:16;;;;;;;;;;;;;;;11.84;51.49;98302.88;4966551;27;98945;-64
2023/10/21 01:06:44;;;;;;;;;;;;;;;11.83;51.42;98301.25;4978710;27;103003;-64
2023/10/21 01:09:13;;;;;;;;;;;;;;;11.83;51.69;98309.34;4983799;27;98093;-71
2023/10/21 01:11:41;;;;;;;;;;;;;;;11.82;51.32;98303.16;4983736;27;98252;-64
2023/10/21 01:14:09;;;;;;;;;;;;;;;11.83;51.37;98314.75;4979795;27;99668;-71
2023/10/21 01:16:36;;;;;;;;;;;;;;;11.83;51.54;98312.03;4979228;27;98080;-63
2023/10/21 01:19:07;;;;;;;;;;;;;;;11.80;51.45;98306.19;4968339;27;98481;-63
2023/10/21 01:21:34;;;;;;;;;;;;;;;11.81;51.51;98301.59;4964482;27;99383;-71
2023/10/21 01:24:00;;;;;;;;;;;;;;;11.82;51.45;98302.38;4984915;27;100830;-71
2023/10/21 01:26:26;;;;;;;;;;;;;;;11.80;51.73;98298.09;4960705;27;100148;-63
2023/10/21 01:28:53;;;;;;;;;;;;;;;11.79;51.48;98290.34;4997001;27;99504;-63
2023/10/21 01:31:21;;;;;;;;;;;;;;;11.79;51.57;98295.75;4979257;27;97945;-63
2023/10/21 01:33:48;;;;;;;;;;;;;;;11.79;51.53;98301.13;4962037;27;98112;-71
2023/10/21 01:36:14;;;;;;;;;;;;;;;11.78;51.60;98308.41;4976615;27;98580;-71
2023/10/21 01:38:41;;;;;;;;;;;;;;;11.77;51.58;98303.34;4966809;27;98207;-64
2023/10/21 01:41:10;;;;;;;;;;;;;;;11.78;51.46;98310.31;4960811;27;98226;-70
2023/10/21 01:43:37;;;;;;;;;;;;;;;11.77;51.62;98314.16;4983272;27;98417;-72
2023/10/21 01:46:07;;;;;;;;;;;;;;;11.76;51.46;98323.38;4969191;27;100533;-64
2023/10/21 01:48:34;;;;;;;;;;;;;;;11.75;51.43;98335.25;4968183;27;100129;-71
2023/10/21 01:51:04;;;;;;;;;;;;;;;11.76;51.54;98334.16;4967131;27;98020;-67
2023/10/21 01:53:31;;;;;;;;;;;;;;;11.74;51.56;98336.38;4985501;27;100425;-71
2023/10/21 01:56:04;;;;;;;;;;;;;;;11.75;51.37;98349.56;5003069;27;98590;-64
2023/10/21 01:58:31;;;;;;;;;;;;;;;11.73;51.57;98351.78;4998518;27;98177;-71
2023/10/21 02:00:58;;;;;;;;;;;;;;;11.74;51.34;98347.19;4965250;27;99190;-71
2023/10/21 02:03:25;;;;;;;;;;;;;;;11.73;51.51;98353.72;4996257;27;98179;-65
2023/10/21 02:05:53;;;;;;;;;;;;;;;11.72;51.50;98344.81;4983949;27;98146;-64
2023/10/21 02:08:20;;;;;;;;;;;;;;;11.73;51.58;98353.72;4979904;27;98393;-64
2023/10/21 02:10:46;;;;;;;;;;;;;;;11.72;51.57;98369.13;4999679;27;98197;-71
2023/10/21 02:13:12;;;;;;;;;;;;;;;11.71;51.59;98369.41;5006766;27;98305;-71
2023/10/21 02:15:40;;;;;;;;;;;;;;;11.70;51.57;98365.94;4975080;27;98029;-63
2023/10/21 02:18:07;;;;;;;;;;;;;;;11.70;51.44;98362.44;4983862;27;97978;-71
2023/10/21 02:20:34;;;;;;;;;;;;;;;11.69;51.52;98368.97;4978557;27;98229;-63
2023/10/21 02:23:00;;;;;;;;;;;;;;;11.69;51.51;98374.38;4999475;27;99070;-71
2023/10/21 02:25:27;;;;;;;;;;;;;;;11.68;51.48;98380.88;5011338;27;98920;-71
2023/10/21 02:27:54;;;;;;;;;;;;;;;11.67;51.53;98381.97;4986016;27;102954;-64
2023/10/21 02:30:21;;;;;;;;;;;;;;;11.67;51.60;98395.47;4984858;27;97970;-64
2023/10/21 02:32:51;;;;;;;;;;;;;;;11.67;51.60;98399.00;4973104;27;99039;-71
2023/10/21 02:35:18;;;;;;;;;;;;;;;11.66;51.78;98400.09;4970713;27;99805;-64
2023/10/21 02:37:45;;;;;;;;;;;;;;;11.66;51.47;98399.28;4985416;27;123998;-71
2023/10/21 02:40:15;;;;;;;;;;;;;;;11.66;51.50;98418.97;4989500;27;98901;-64
2023/10/21 02:42:43;;;;;;;;;;;;;;;11.65;51.35;98427.41;4989263;27;99513;-63
2023/10/21 02:45:10;;;;;;;;;;;;;;;11.65;51.66;98427.41;4981552;27;99614;-71
2023/10/21 02:47:38;;;;;;;;;;;;;;;11.65;51.82;98424.72;4996948;27;98809;-63
2023/10/21 02:50:06;;;;;;;;;;;;;;;11.64;51.65;98434.72;5000277;27;98369;-63
2023/10/21 02:52:39;;;;;;;;;;;;;;;11.64;51.56;98432.00;4982807;27;98822;-63
2023/10/21 02:55:06;;;;;;;;;;;;;;;11.62;51.57;98426.13;4985857;27;98082;-71
2023/10/21 02:57:32;;;;;;;;;;;;;;;11.63;51.60;98432.31;4997011;27;98539;-63
2023/10/21 03:00:00;;;;;;;;;;;;;;;11.63;51.73;98429.63;4964654;27;99397;-63
2023/10/21 03:02:26;;;;;;;;;;;;;;;11.61;51.51;98421.84;4997145;27;99124;-71
2023/10/21 03:04:53;;;;;;;;;;;;;;;11.62;51.80;98430.75;5001426;27;100439;-63
2023/10/21 03:07:20;;;;;;;;;;;;;;;11.62;51.79;98426.13;4983690;27;98142;-63
2023/10/21 03:09:48;;;;;;;;;;;;;;;11.60;51.65;98428.38;5005324;27;98460;-71
2023/10/21 03:12:14;;;;;;;;;;;;;;;11.60;51.84;98422.19;4988634;27;98124;-71
2023/10/21 03:14:41;;;;;;;;;;;;;;;11.59;51.62;98420.59;5005339;27;98439;-64
2023/10/21 03:17:07;;;;;;;;;;;;;;;11.59;51.62;98425.97;4996925;27;99552;-64
2023/10/21 03:19:33;;;;;;;;;;;;;;;11.58;51.60;98419.00;4998564;27;98915;-64
2023/10/21 03:22:01;;;;;;;;;;;;;;;11.56;51.55;98419.34;4982337;27;98192;-63
2023/10/21 03:24:27;;;;;;;;;;;;;;;11.56;51.57;98424.75;4984011;27;100276;-64
2023/10/21 03:26:54;;;;;;;;;;;;;;;11.55;51.87;98418.56;5002188;27;98253;-69
2023/10/21 03:29:20;;;;;;;;;;;;;;;11.55;51.65;98417.75;4966721;27;98245;-64
2023/10/21 03:31:49;;;;;;;;;;;;;;;11.53;51.58;98426.16;4982786;27;98414;-64
2023/10/21 03:34:15;;;;;;;;;;;;;;;11.52;51.62;98423.81;4980097;27;98412;-63
2023/10/21 03:36:42;;;;;;;;;;;;;;;11.53;51.61;98436.19;4987460;27;98196;-63
2023/10/21 03:39:08;;;;;;;;;;;;;;;11.51;51.53;98439.22;5003324;27;98057;-71
2023/10/21 03:41:34;;;;;;;;;;;;;;;11.51;51.55;98441.09;5004051;27;97971;-71
2023/10/21 03:44:01;;;;;;;;;;;;;;;11.50;51.84;98447.59;4964143;27;98616;-71
2023/10/21 03:46:28;;;;;;;;;;;;;;;11.48;51.48;98445.25;4979239;27;98178;-70
2023/10/21 03:48:54;;;;;;;;;;;;;;;11.50;51.67;98448.38;4997356;27;97945;-71
2023/10/21 03:51:21;;;;;;;;;;;;;;;11.49;51.58;98437.94;4969098;27;99248;-71
2023/10/21 03:53:49;;;;;;;;;;;;;;;11.48;51.63;98442.53;4968022;27;99176;-63
2023/10/21 03:56:17;;;;;;;;;;;;;;;11.47;51.69;98429.34;4968816;27;98222;-63
2023/10/21 03:58:46;;;;;;;;;;;;;;;11.48;51.61;98425.56;4966769;27;98197;-63
2023/10/21 04:01:12;;;;;;;;;;;;;;;11.46;51.67;98442.06;4991439;27;98686;-69
2023/10/21 04:03:43;;;;;;;;;;;;;;;11.45;51.62;98440.47;5000276;27;98073;-71
2023/10/21 04:06:12;;;;;;;;;;;;;;;11.46;51.43;98438.56;5000365;27;101260;-71
2023/10/21 04:08:38;;;;;;;;;;;;;;;11.45;51.74;98442.38;4985145;27;98312;-70
2023/10/21 04:11:06;;;;;;;;;;;;;;;11.45;51.67;98450.47;4980832;27;98379;-64
2023/10/21 04:13:33;;;;;;;;;;;;;;;11.45;51.58;98456.66;4985041;27;99278;-72
2023/10/21 04:16:01;;;;;;;;;;;;;;;11.43;51.65;98460.78;4967884;27;98332;-62
2023/10/21 04:18:27;;;;;;;;;;;;;;;11.44;51.68;98470.50;4969583;27;98084;-63
2023/10/21 04:20:55;;;;;;;;;;;;;;;11.44;51.68;98467.78;4983674;27;98429;-63
2023/10/21 04:23:21;;;;;;;;;;;;;;;11.42;51.58;98470.78;5014836;27;100493;-70
2023/10/21 04:25:48;;;;;;;;;;;;;;;11.42;51.76;98475.41;4978291;27;103766;-63
2023/10/21 04:28:15;;;;;;;;;;;;;;;11.41;51.74;98471.91;5003875;27;98127;-71
2023/10/21 04:30:44;;;;;;;;;;;;;;;11.40;51.51;98470.34;4974305;27;99874;-71
2023/10/21 04:33:12;;;;;;;;;;;;;;;11.40;51.54;98473.03;4966725;27;99500;-63
2023/10/21 04:35:39;;;;;;;;;;;;;;;11.40;51.75;98485.72;5002262;27;100159;-71
2023/10/21 04:38:07;;;;;;;;;;;;;;;11.37;51.55;98479.06;4967101;27;99362;-71
2023/10/21 04:40:34;;;;;;;;;;;;;;;11.38;51.65;98488.72;4983675;27;98067;-64
2023/10/21 04:43:01;;;;;;;;;;;;;;;11.37;51.73;98481.75;4999409;27;98274;-64
2023/10/21 04:45:27;;;;;;;;;;;;;;;11.37;51.50;98487.16;4980261;27;98385;-64
2023/10/21 04:47:54;;;;;;;;;;;;;;;11.36;51.54;98495.53;5004912;27;99597;-64
2023/10/21 04:50:21;;;;;;;;;;;;;;;11.35;51.76;98491.28;4964861;27;98069;-64
2023/10/21 04:52:47;;;;;;;;;;;;;;;11.34;51.55;98495.88;5013505;27;98068;-71
2023/10/21 04:55:14;;;;;;;;;;;;;;;11.33;51.76;98505.09;4969051;27;101681;-71
2023/10/21 04:57:40;;;;;;;;;;;;;;;11.33;51.58;98507.00;4983327;27;98378;-72
2023/10/21 05:00:08;;;;;;;;;;;;;;;11.31;51.77;98510.78;4995740;27;98246;-71
2023/10/21 05:02:35;;;;;;;;;;;;;;;11.31;51.68;98512.69;5019757;27;99491;-71
2023/10/21 05:05:01;;;;;;;;;;;;;;;11.30;51.47;98525.38;4964889;27;98192;-68
2023/10/21 05:07:27;;;;;;;;;;;;;;;11.29;51.69;98523.81;4959379;27;99397;-71
2023/10/21 05:09:55;;;;;;;;;;;;;;;11.28;51.57;98527.63;4995893;27;99267;-71
2023/10/21 05:12:21;;;;;;;;;;;;;;;11.26;51.65;98531.75;4987503;27;98682;-71
2023/10/21 05:14:48;;;;;;;;;;;;;;;11.25;51.90;98530.94;5007588;27;98536;-64
2023/10/21 05:17:17;;;;;;;;;;;;;;;11.25;51.79;98532.84;4980646;27;98480;-64
2023/10/21 05:19:46;;;;;;;;;;;;;;;11.23;51.52;98540.47;4978538;27;98271;-64
2023/10/21 05:22:13;;;;;;;;;;;;;;;11.23;51.63;98543.16;4995502;27;98244;-64
2023/10/21 05:24:40;;;;;;;;;;;;;;;11.21;51.62;98546.19;4988908;27;99141;-64
2023/10/21 05:27:06;;;;;;;;;;;;;;;11.20;51.76;98550.00;4960959;27;98270;-71
2023/10/21 05:29:32;;;;;;;;;;;;;;;11.19;51.92;98551.09;4973448;27;98005;-71
2023/10/21 05:32:01;;;;;;;;;;;;;;;11.19;51.79;98547.59;4977394;27;99308;-71
2023/10/21 05:34:27;;;;;;;;;;;;;;;11.17;51.93;98553.31;4978760;27;98981;-64
2023/10/21 05:36:54;;;;;;;;;;;;;;;11.16;51.51;98543.66;4966251;27;98542;-71
2023/10/21 05:39:21;;;;;;;;;;;;;;;11.16;51.57;98564.41;4993154;27;100261;-64
2023/10/21 05:41:48;;;;;;;;;;;;;;;11.15;51.97;98552.84;4976657;27;98084;-71
2023/10/21 05:44:14;;;;;;;;;;;;;;;11.16;51.57;98564.41;4992998;27;99735;-71
2023/10/21 05:46:40;;;;;;;;;;;;;;;11.14;51.53;98561.25;4988335;27;98680;-71
2023/10/21 05:49:06;;;;;;;;;;;;;;;11.13;51.33;98565.84;4997128;27;98191;-71
2023/10/21 05:51:32;;;;;;;;;;;;;;;11.15;52.10;98571.72;4978308;27;100022;-64
2023/10/21 05:53:59;;;;;;;;;;;;;;;11.16;51.76;98575.19;4998413;27;99766;-71
2023/10/21 05:56:26;;;;;;;;;;;;;;;11.16;51.88;98581.41;4977421;27;98380;-64
2023/10/21 05:58:53;;;;;;;;;;;;;;;11.17;51.49;98576.81;4995353;27;98061;-64
2023/10/21 06:01:20;;;;;;;;;;;;;;;11.18;51.77;98586.47;4960544;27;98405;-65
2023/10/21 06:03:47;;;;;;;;;;;;;;;11.19;51.87;98596.16;4981988;27;98965;-71
2023/10/21 06:06:13;;;;;;;;;;;;;;;11.20;51.54;98600.41;4960156;27;98147;-71
2023/10/21 06:08:40;;;;;;;;;;;;;;;11.21;51.54;98602.03;4966949;27;99763;-64
2023/10/21 06:11:08;;;;;;;;;;;;;;;11.24;51.52;98604.09;4984730;27;98470;-71
2023/10/21 06:13:35;;;;;;;;;;;;;;;11.24;51.50;98602.19;5000852;27;98966;-64
2023/10/21 06:16:01;;;;;;;;;;;;;;;11.26;51.75;98610.75;4967473;27;99390;-64
2023/10/21 06:18:28;;;;;;;;;;;;;;;11.30;51.56;98613.59;4997395;27;98073;-71
2023/10/21 06:20:55;;;;;;;;;;;;;;;11.31;51.53;98615.19;4962722;27;99657;-64
2023/10/21 06:23:22;;;;;;;;;;;;;;;11.33;51.33;98615.69;4984980;27;98183;-71
2023/10/21 06:25:50;;;;;;;;;;;;;;;11.35;51.45;98615.34;4963351;27;98599;-71
2023/10/21 06:28:16;;;;;;;;;;;;;;;11.37;51.57;98615.84;4996138;27;99193;-64
2023/10/21 06:30:43;;;;;;;;;;;;;;;11.41;51.25;98619.50;4977438;27;98524;-70
2023/10/21 06:33:09;;;;;;;;;;;;;;;11.44;51.27;98621.56;4999306;27;99043;-71
2023/10/21 06:35:38;;;;;;;;;;;;;;;11.51;51.28;98633.47;4998428;27;98405;-71
2023/10/21 06:38:07;;;;;;;;;;;;;;;11.60;51.28;98640.78;4998693;27;98424;-71
2023/10/21 06:40:34;;;;;;;;;;;;;;;11.67;51.23;98639.19;4969594;27;98012;-71
2023/10/21 06:43:01;;;;;;;;;;;;;;;11.77;51.14;98648.84;4977835;27;98178;-64
2023/10/21 06:45:28;;;;;;;;;;;;;;;11.86;50.95;98651.56;4997900;27;100521;-71
2023/10/21 06:47:54;;;;;;;;;;;;;;;11.93;51.03;98657.28;4985305;27;98710;-71
2023/10/21 06:50:21;;;;;;;;;;;;;;;11.99;50.99;98653.31;4981235;27;98563;-64
2023/10/21 06:52:48;;;;;;;;;;;;;;;12.05;51.09;98652.03;4968959;27;98189;-69
2023/10/21 06:55:15;;;;;;;;;;;;;;;12.09;50.77;98658.38;4979360;27;100141;-64
2023/10/21 06:57:42;;;;;;;;;;;;;;;12.15;51.07;98662.50;4978723;27;98383;-72
2023/10/21 07:00:10;;;;;;;;;;;;;;;12.21;50.98;98680.09;4963931;27;98335;-72
2023/10/21 07:02:37;;;;;;;;;;;;;;;12.27;50.88;98686.16;4995725;27;99718;-72
2023/10/21 07:05:09;;;;;;;;;;;;;;;12.46;50.71;98685.78;4984504;27;98469;-64
2023/10/21 07:07:37;;;;;;;;;;;;;;;12.58;50.54;98675.09;4984514;27;98093;-64
2023/10/21 07:10:04;;;;;;;;;;;;;;;12.56;50.75;98680.03;4981321;27;98287;-71
2023/10/21 07:12:31;;;;;;;;;;;;;;;12.64;50.60;98683.81;4994045;27;98226;-70
2023/10/21 07:14:59;;;;;;;;;;;;;;;12.67;50.70;98686.66;4983754;27;98563;-72
2023/10/21 07:17:26;;;;;;;;;;;;;;;12.74;50.64;98688.88;4964674;27;98595;-72
2023/10/21 07:19:52;;;;;;;;;;;;;;;12.80;50.54;98703.78;4978933;27;103961;-71
2023/10/21 07:22:19;;;;;;;;;;;;;;;12.81;50.82;98696.47;4964728;27;100988;-64
2023/10/21 07:24:45;;;;;;;;;;;;;;;12.74;50.77;98697.00;4986158;27;97902;-64
2023/10/21 07:27:12;;;;;;;;;;;;;;;12.77;50.75;98699.84;4997868;27;98559;-72
2023/10/21 07:29:38;;;;;;;;;;;;;;;12.71;50.92;98701.13;4981631;27;98147;-64
2023/10/21 07:32:05;;;;;;;;;;;;;;;12.74;50.80;98695.06;4981263;27;99560;-71
2023/10/21 07:34:32;;;;;;;;;;;;;;;12.78;51.18;98706.81;4957258;27;98007;-72
2023/10/21 07:36:58;;;;;;;;;;;;;;;12.95;50.79;98710.56;5001616;27;98243;-72
2023/10/21 07:39:26;;;;;;;;;;;;;;;13.17;50.49;98709.53;4999511;27;98476;-64
2023/10/21 07:41:53;;;;;;;;;;;;;;;13.47;49.93;98713.81;4999028;27;99057;-72
2023/10/21 07:44:20;;;;;;;;;;;;;;;13.80;49.60;98715.03;4997022;27;98808;-72
2023/10/21 07:46:47;;;;;;;;;;;;;;;14.20;49.73;98720.75;4975391;27;100471;-72
2023/10/21 07:49:14;;;;;;;;;;;;;;;14.54;49.12;98718.84;4994624;27;98655;-64
2023/10/21 07:51:40;;;;;;;;;;;;;;;14.88;49.06;98723.88;4978753;27;98429;-72
2023/10/21 07:54:06;;;;;;;;;;;;;;;15.14;48.97;98725.50;5010855;27;98542;-64
2023/10/21 07:56:32;;;;;;;;;;;;;;;15.48;48.75;98724.19;4994829;27;99429;-64
2023/10/21 07:58:59;;;;;;;;;;;;;;;15.77;48.39;98728.63;5012329;27;98155;-72
2023/10/21 08:01:25;;;;;;;;;;;;;;;16.14;48.26;98731.22;4988665;27;98765;-72
2023/10/21 08:03:51;;;;;;;;;;;;;;;16.82;47.69;98739.28;4991587;27;98968;-73
2023/10/21 08:06:18;;;;;;;;;;;;;;;18.09;46.43;98745.31;5010335;27;99774;-73
2023/10/21 08:08:44;;;;;;;;;;;;;;;19.19;45.95;98745.78;5014545;27;98010;-65
2023/10/21 08:11:10;;;;;;;;;;;;;;;20.20;45.19;98746.06;4964556;27;99001;-73
2023/10/21 08:13:37;;;;;;;;;;;;;;;21.37;44.41;98753.84;4995829;27;98480;-65
2023/10/21 08:16:04;;;;;;;;;;;;;;;22.37;43.92;98761.88;4998122;27;99688;-68
2023/10/21 08:18:31;;;;;;;;;;;;;;;22.87;44.32;98762.78;4979105;27;98879;-72
2023/10/21 08:20:58;;;;;;;;;;;;;;;23.10;44.63;98767.91;4978037;27;98468;-73
2023/10/21 08:23:25;;;;;;;;;;;;;;;23.62;44.60;98762.81;4979788;27;99744;-84
2023/10/21 08:25:52;;;;;;;;;;;;;;;24.66;43.79;98766.00;4998769;27;98500;-82
2023/10/21 08:28:19;;;;;;;;;;;;;;;26.02;43.00;98778.69;4963720;27;98516;-77
2023/10/21 08:30:49;;;;;;;;;;;;;;;27.06;42.70;98791.13;4983602;27;98930;-78
2023/10/21 08:33:15;;;;;;;;;;;;;;;28.71;42.00;98791.69;4993227;27;98480;-73
2023/10/21 08:35:42;;;;;;;;;;;;;;;30.61;40.82;98791.16;4965188;27;99719;-79
2023/10/21 08:38:09;;;;;;;;;;;;;;;32.14;40.34;98807.66;4962468;27;99587;-79
2023/10/21 08:40:39;;;;;;;;;;;;;;;33.08;40.06;98788.97;4947892;27;99233;-75
2023/10/21 08:43:05;;;;;;;;;;;;;;;33.85;40.48;98797.34;4979586;27;98746;-67
2023/10/21 08:45:32;;;;;;;;;;;;;;;34.33;40.91;98794.06;4958219;27;99700;-74
2023/10/21 08:47:59;;;;;;;;;;;;;;;34.74;40.96;98791.78;4993042;27;98026;-75
2023/10/21 08:50:26;;;;;;;;;;;;;;;35.20;41.32;98786.00;4958916;27;98591;-76
2023/10/21 08:52:54;;;;;;;;;;;;;;;35.70;41.21;98795.50;4993780;27;98033;-76
2023/10/21 08:55:22;;;;;;;;;;;;;;;36.17;41.31;98796.69;4979498;27;101759;-77
2023/10/21 08:57:49;;;;;;;;;;;;;;;36.53;40.88;98789.16;4993223;27;98267;-76
2023/10/21 09:00:20;;;;;;;;;;;;;;;36.83;41.01;98790.66;4957665;27;98205;-68
2023/10/21 09:02:46;;;;;;;;;;;;;;;37.10;40.90;98798.00;4994558;27;98401;-77
2023/10/21 09:05:13;;;;;;;;;;;;;;;37.47;41.04;98797.47;4964487;27;99637;-78
2023/10/21 09:07:49;;;;;;;;;;;;;;;37.87;41.35;98801.56;5007371;27;98140;-68
2023/10/21 09:10:16;;;;;;;;;;;;;;;38.51;40.76;98796.84;4962088;27;98734;-67
2023/10/21 09:12:43;;;;;;;;;;;;;;;39.56;39.58;98800.88;4998204;27;98540;-69
2023/10/21 09:15:10;;;;;;;;;;;;;;;40.56;38.67;98808.09;4992279;27;99746;-67
2023/10/21 09:17:38;;;;;;;;;;;;;;;41.59;38.03;98813.06;5008610;27;99320;-67
2023/10/21 09:20:15;;;;;;;;;;;;;;;42.52;37.07;98823.59;4962767;27;99599;-79
2023/10/21 09:22:42;;;;;;;;;;;;;;;43.32;36.94;98813.13;4913125;27;99307;-78
2023/10/21 09:25:15;;;;;;;;;;;;;;;43.35;37.03;98806.38;4977465;27;98858;-79
2023/10/21 09:27:55;;;;;;;;;;;;;;;43.19;37.74;98813.75;4964119;27;98805;-78
2023/10/21 09:30:28;;;;;;;;;;;;;;;43.30;37.86;98827.81;4982361;27;99567;-67
2023/10/21 09:33:06;;;;;;;;;;;;;;;43.83;37.67;98824.63;4995193;27;98057;-78
2023/10/21 09:35:35;;;;;;;;;;;;;;;44.76;37.30;98825.06;4990877;27;98333;-77
2023/10/21 09:38:16;;;;;;;;;;;;;;;45.68;36.32;98829.31;4981178;27;99115;-67
2023/10/21 09:40:42;;;;;;;;;;;;;;;46.57;36.04;98831.44;4974815;27;98520;-78
2023/10/21 09:43:11;;;;;;;;;;;;;;;47.15;35.87;98822.44;4982030;27;98247;-73
2023/10/21 09:45:39;;;;;;;;;;;;;;;48.00;34.88;98837.16;4980550;27;98412;-68
2023/10/21 09:48:06;;;;;;;;;;;;;;;48.65;34.72;98831.97;5006687;27;98708;-78
2023/10/21 09:50:32;;;;;;;;;;;;;;;49.72;33.75;98831.06;4964914;27;98349;-68
2023/10/21 09:53:02;;;;;;;;;;;;;;;50.56;33.75;98850.69;4977540;27;98221;-78
2023/10/21 09:55:31;;;;;;;;;;;;;;;51.02;33.13;98839.59;4967602;27;98342;-78
2023/10/21 09:57:57;;;;;;;;;;;;;;;50.87;33.22;98845.44;4944730;27;98449;-68
2023/10/21 10:00:27;;;;;;;;;;;;;;;50.31;34.09;98844.91;4976590;27;97961;-69
2023/10/21 10:02:55;;;;;;;;;;;;;;;49.90;34.25;98843.41;4963522;27;97984;-78
2023/10/21 10:05:22;;;;;;;;;;;;;;;49.34;34.97;98851.97;4947966;27;100809;-78
2023/10/21 10:07:49;;;;;;;;;;;;;;;50.07;34.06;98854.94;5007283;27;98397;-78
2023/10/21 10:10:20;;;;;;;;;;;;;;;49.96;34.00;98856.16;4978201;27;98148;-73
2023/10/21 10:13:06;;;;;;;;;;;;;;;50.14;33.88;98857.00;4958945;27;98322;-69
2023/10/21 10:15:34;;;;;;;;;;;;;;;50.37;33.83;98859.75;5004058;27;98250;-68
2023/10/21 10:18:07;;;;;;;;;;;;;;;50.61;33.65;98855.41;5008386;27;99433;-69
2023/10/21 10:20:33;;;;;;;;;;;;;;;50.83;33.29;98865.16;4993262;27;98092;-69
2023/10/21 10:23:09;;;;;;;;;;;;;;;51.02;33.39;98868.28;4996195;27;100066;-69
2023/10/21 10:25:39;;;;;;;;;;;;;;;50.87;33.43;98862.66;5007161;27;98076;-69
2023/10/21 10:28:17;;;;;;;;;;;;;;;50.62;33.69;98853.28;4974800;27;98738;-78
2023/10/21 10:30:44;;;;;;;;;;;;;;;50.27;33.56;98851.06;4960526;27;103400;-67
2023/10/21 10:33:15;;;;;;;;;;;;;;;49.86;33.62;98858.13;4988567;27;103571;-69
2023/10/21 10:35:47;;;;;;;;;;;;;;;49.76;33.88;98863.66;4961626;27;98082;-79
2023/10/21 10:38:24;;;;;;;;;;;;;;;49.54;34.00;98864.50;4993759;27;98277;-68
2023/10/21 10:40:51;;;;;;;;;;;;;;;48.72;34.55;98867.59;4980623;27;97944;-78
2023/10/21 10:43:20;;;;;;;;;;;;;;;47.53;35.29;98876.09;4992262;27;98065;-79
2023/10/21 10:45:47;;;;;;;;;;;;;;;46.43;36.48;98874.22;4976374;27;99978;-68
2023/10/21 10:48:15;;;;;;;;;;;;;;;45.35;36.86;98871.28;4990846;27;100420;-69
2023/10/21 10:50:41;;;;;;;;;;;;;;;44.33;37.67;98882.75;4992755;27;98307;-68
2023/10/21 10:53:17;;;;;;;;;;;;;;;43.50;38.14;98894.59;4964465;27;98481;-78
2023/10/21 10:55:53;;;;;;;;;;;;;;;42.71;38.44;98900.19;4962130;27;99219;-78
2023/10/21 10:58:20;;;;;;;;;;;;;;;42.00;38.83;98900.06;4981087;27;100658;-67
2023/10/21 11:00:47;;;;;;;;;;;;;;;41.38;39.09;98908.66;5013162;27;99776;-67
2023/10/21 11:03:31;;;;;;;;;;;;;;;40.83;39.12;98896.88;4999838;27;98471;-68
2023/10/21 11:05:59;;;;;;;;;;;;;;;40.23;39.40;98904.72;4998212;27;98325;-78
2023/10/21 11:08:25;;;;;;;;;;;;;;;39.82;39.59;98912.75;4965600;27;98176;-78
2023/10/21 11:11:02;;;;;;;;;;;;;;;39.44;39.85;98917.63;5010019;27;99613;-68
2023/10/21 11:13:29;;;;;;;;;;;;;;;38.96;40.37;98924.66;4982158;27;98287;-79
2023/10/21 11:15:57;;;;;;;;;;;;;;;38.16;40.73;98927.13;4996919;27;98257;-69
2023/10/21 11:18:26;;;;;;;;;;;;;;;37.90;41.03;98940.34;4964087;27;97953;-78
2023/10/21 11:20:53;;;;;;;;;;;;;;;37.44;41.03;98943.75;4996545;27;99930;-78
2023/10/21 11:23:23;;;;;;;;;;;;;;;37.14;41.33;98948.59;4965431;27;98242;-68
2023/10/21 11:25:51;;;;;;;;;;;;;;;36.79;41.28;98954.88;4997408;27;99839;-68
2023/10/21 11:28:19;;;;;;;;;;;;;;;36.47;41.50;98960.16;4980373;27;99275;-67
2023/10/21 11:30:49;;;;;;;;;;;;;;;36.12;41.85;98971.16;4988079;27;98298;-78
2023/10/21 11:33:16;;;;;;;;;;;;;;;35.81;41.99;98963.84;4981538;27;98498;-78
2023/10/21 11:35:45;;;;;;;;;;;;;;;35.65;42.00;98967.03;4980093;27;98078;-68
2023/10/21 11:38:17;;;;;;;;;;;;;;;35.36;42.26;98979.56;4996441;27;108080;-78
2023/10/21 11:40:44;;;;;;;;;;;;;;;34.96;42.59;98974.19;4998005;27;99209;-78
2023/10/21 11:43:12;;;;;;;;;;;;;;;34.54;42.85;98983.25;4979701;27;98257;-68
2023/10/21 11:45:42;;;;;;;;;;;;;;;34.13;43.00;98988.16;4981138;27;98662;-77
2023/10/21 11:48:11;;;;;;;;;;;;;;;33.64;43.37;98994.53;4979244;27;100587;-68
2023/10/21 11:50:42;;;;;;;;;;;;;;;33.12;43.46;98984.16;4997334;27;99344;-78
2023/10/21 11:53:09;;;;;;;;;;;;;;;32.50;43.70;98985.56;5014385;27;98232;-67
2023/10/21 11:59:25;;;;;;;;;;;;;;;31.25;44.71;98992.31;5006493;27;98182;-68
2023/10/21 12:28:13;;;;;;;;;;;;;;;26.96;45.98;99060.19;4981293;27;98438;-80
2023/10/21 12:30:41;;;;;;;;;;;;;;;26.66;46.22;99067.97;4994870;27;98168;-69
2023/10/21 12:38:39;;;;;;;;;;;;;;;25.99;46.28;99083.09;5007716;27;98585;-79
2023/10/21 12:43:35;;;;;;;;;;;;;;;25.74;46.43;99090.69;4996619;27;97980;-79
2023/10/21 12:46:16;;;;;;;;;;;;;;;25.63;46.23;99108.09;4981260;27;99065;-78
2023/10/21 12:48:43;;;;;;;;;;;;;;;25.57;46.36;99117.97;4997654;27;98669;-79
2023/10/21 12:51:14;;;;;;;;;;;;;;;25.43;46.34;99116.06;4999119;27;98320;-68
2023/10/21 12:53:41;;;;;;;;;;;;;;;25.45;45.96;99119.19;4999807;27;98301;-68
2023/10/21 12:56:07;;;;;;;;;;;;;;;25.45;46.10;99124.72;4981531;27;98512;-78
2023/10/21 12:58:36;;;;;;;;;;;;;;;25.34;46.12;99126.72;4981692;27;98095;-69
2023/10/21 13:01:09;;;;;;;;;;;;;;;25.31;46.06;99129.47;4968034;27;99133;-68
2023/10/21 13:03:37;;;;;;;;;;;;;;;25.44;45.79;99138.91;4969485;27;98773;-79
2023/10/21 13:06:06;;;;;;;;;;;;;;;25.65;45.70;99138.03;4967058;27;98239;-79
2023/10/21 13:08:33;;;;;;;;;;;;;;;25.70;45.58;99143.94;5003234;27;98529;-79
2023/10/21 13:11:01;;;;;;;;;;;;;;;25.70;45.74;99141.19;4998902;27;100042;-68
2023/10/21 13:13:29;;;;;;;;;;;;;;;25.73;45.68;99147.06;4992691;27;98274;-69
2023/10/21 13:15:56;;;;;;;;;;;;;;;25.66;45.94;99140.41;5000306;27;98153;-68
2023/10/21 13:18:22;;;;;;;;;;;;;;;25.60;45.81;99136.47;4980707;27;98290;-79
2023/10/21 13:20:50;;;;;;;;;;;;;;;25.56;45.91;99137.69;4997187;27;98329;-68
2023/10/21 13:23:16;;;;;;;;;;;;;;;25.53;45.98;99144.00;5006730;27;98146;-68
2023/10/21 13:25:42;;;;;;;;;;;;;;;25.46;45.84;99155.81;4981372;27;98668;-79